createdAt,value
2022-09-28T00:08:45.643Z,3.55
2022-09-28T00:18:59.380Z,4.63
2022-09-28T00:29:10.230Z,4.05
2022-09-28T00:39:25.359Z,3.53
2022-09-28T00:49:43.446Z,2.70
2022-09-28T00:59:53.822Z,4.30
2022-09-28T01:30:52.139Z,4.18
2022-09-28T01:41:02.358Z,2.63
2022-09-28T01:51:17.381Z,2.95
2022-09-28T02:01:25.776Z,3.45
2022-09-28T02:11:43.513Z,4.13
2022-09-28T02:22:06.236Z,3.63
2022-09-28T02:32:24.046Z,3.38
2022-09-28T02:42:44.413Z,3.42
2022-09-28T02:53:09.637Z,3.35
2022-09-28T03:03:36.481Z,2.35
2022-09-28T03:13:45.990Z,2.80
2022-09-28T03:23:52.853Z,2.95
2022-09-28T03:34:10.307Z,3.67
2022-09-28T03:44:21.900Z,1.92
2022-09-28T04:04:41.979Z,2.90
2022-09-28T04:14:46.287Z,2.58
2022-09-28T04:24:56.225Z,2.00
2022-09-28T04:35:10.947Z,1.95
2022-09-28T04:45:26.993Z,2.65
2022-09-28T04:55:34.468Z,2.60
2022-09-28T05:05:48.142Z,2.83
2022-09-28T05:16:05.204Z,2.90
2022-09-28T05:26:10.327Z,2.42
2022-09-28T05:57:09.156Z,1.63
2022-09-28T06:07:15.160Z,2.15
2022-09-28T06:17:20.289Z,1.70
2022-09-28T06:27:29.713Z,2.05
2022-09-28T06:37:41.577Z,0.95
2022-09-28T06:47:57.521Z,0.95
2022-09-28T06:58:20.052Z,1.00
2022-09-28T07:08:35.999Z,1.25
2022-09-28T07:18:45.426Z,1.10
2022-09-28T07:28:53.627Z,2.03
2022-09-28T07:51:01.939Z,2.47
2022-09-28T08:12:09.830Z,1.70
2022-09-28T08:22:42.442Z,1.60
2022-09-28T08:33:08.415Z,0.80
2022-09-28T08:54:13.797Z,1.90
2022-09-28T09:04:32.276Z,0.95
2022-09-28T09:15:17.799Z,1.05
2022-09-28T09:25:51.715Z,1.10
2022-09-28T09:36:29.392Z,0.80
2022-09-28T09:47:29.413Z,0.90
2022-09-28T09:57:54.396Z,0.75
2022-09-28T10:08:09.443Z,0.82
2022-09-28T10:18:28.389Z,0.75
2022-09-28T10:28:48.654Z,0.70
2022-09-28T10:38:57.329Z,0.40
2022-09-28T10:49:03.476Z,0.32
2022-09-28T10:59:26.081Z,0.73
2022-09-28T11:09:37.655Z,2.35
2022-09-28T11:19:47.573Z,0.67
2022-09-28T11:41:49.939Z,0.60
2022-09-28T12:02:21.469Z,0.93
2022-09-28T12:12:36.936Z,0.40
2022-09-28T12:23:05.707Z,0.52
2022-09-28T12:33:14.236Z,0.85
2022-09-28T12:54:27.890Z,0.50
2022-09-28T13:04:56.044Z,0.90
2022-09-28T13:15:24.496Z,0.45
2022-09-28T13:25:40.433Z,0.80
2022-09-28T13:35:52.017Z,0.77
2022-09-28T13:46:18.141Z,0.40
2022-09-28T13:56:35.740Z,0.35
2022-09-28T14:06:47.515Z,0.77
2022-09-28T14:17:42.860Z,0.55
2022-09-28T14:28:12.875Z,0.52
2022-09-28T14:38:39.656Z,0.17
2022-09-28T14:48:51.959Z,0.50
2022-09-28T14:59:03.976Z,0.22
2022-09-28T15:09:42.633Z,0.30
2022-09-28T15:20:04.333Z,0.55
2022-09-28T15:30:28.316Z,0.85
2022-09-28T15:40:42.724Z,0.20
2022-09-28T15:51:06.450Z,1.85
2022-09-28T16:01:36.752Z,0.80
2022-09-28T16:11:45.066Z,0.98
2022-09-28T16:21:48.882Z,1.90
2022-09-28T16:31:55.070Z,1.38
2022-09-28T16:52:51.851Z,1.17
2022-09-28T17:13:20.929Z,1.00
2022-09-28T17:23:30.565Z,1.08
2022-09-28T17:33:42.632Z,0.80
2022-09-28T17:43:54.044Z,1.00
2022-09-28T17:54:05.618Z,1.45
2022-09-28T18:04:22.922Z,0.60
2022-09-28T18:14:36.469Z,0.90
2022-09-28T18:24:40.541Z,0.65
2022-09-28T18:35:02.154Z,0.63
2022-09-28T18:45:16.489Z,1.05
2022-09-28T18:55:32.020Z,1.08
2022-09-28T19:05:45.052Z,1.20
2022-09-28T19:15:51.828Z,1.67
2022-09-28T19:25:54.975Z,1.58
2022-09-28T19:36:09.361Z,1.20
2022-09-28T19:46:16.660Z,1.23
2022-09-28T19:56:29.925Z,0.45
2022-09-28T20:06:35.318Z,0.60
2022-09-28T20:16:45.920Z,0.50
2022-09-28T20:26:53.016Z,0.70
2022-09-28T20:37:01.038Z,0.50
2022-09-28T20:47:04.427Z,0.80
2022-09-28T20:57:17.969Z,1.10
2022-09-28T21:07:21.198Z,0.50
2022-09-28T21:17:27.578Z,0.73
2022-09-28T21:27:34.690Z,1.02
2022-09-28T21:37:40.813Z,0.98
2022-09-28T21:47:47.897Z,0.90
2022-09-28T21:57:52.366Z,1.08
2022-09-28T22:07:55.913Z,0.95
2022-09-28T22:18:00.655Z,1.05
2022-09-28T22:28:05.663Z,2.10
2022-09-28T22:38:10.056Z,1.30
2022-09-28T22:48:13.987Z,1.05
2022-09-28T22:58:18.827Z,1.08
2022-09-28T23:08:22.791Z,1.30
2022-09-28T23:18:30.565Z,1.40
2022-09-28T23:28:33.996Z,1.40
2022-09-28T23:38:38.490Z,1.65
2022-09-28T23:48:42.014Z,1.23
2022-09-28T23:58:49.304Z,1.20
